»·PEaware :: SWA2530 KTUS-KLAS

SWA2530 :: KTUS-KLAS

FLIGHT INFORMATION

Flight Status: Arrived
Operator:
Southwest Airlines
More flights by this operator :: More flights under this callsign
Pilot: Dave P. (45)
Aircraft: BOEING 737-800
(B738)
More flights by this aircraft type
Origin: KTUS Tucson Intl
United States
Destination: KLAS McCarran Intl
United States
More flights between these airports :: More routes between these airports
Route: BURRO4 BBALL PXR J11 DRK TYSSN5
File this flight plan on PilotEdge
Remarks:
Altitude:
(Current/Filed)
32,000ft
Speed:
(Current/Filed)
460kts
Departed: 25-Oct-20 07:46 AM
Arrived: 25-Oct-20 08:46 AM
Distance/Time
Traveled:
316nm/1:00
Distance/Time
To Go:
Arrived

Flight Plot

Page will automatically refresh every two minutes.

Flight plan parsing failed; only flown route is shown


Map Options




Map Legend


Flown Route
Filed Route
Departure Airport
Arrival Airport
Navaid (VOR, NDB)
Fix

Horizontal Profiles

Position Reports

Time Latitude Longitude Heading Altitude Ground
Speed
25-Oct-20 07:21 32.118379 -110.936038 258 2651ft 0kts
25-Oct-20 07:22 32.118379 -110.936038 258 2651ft 0kts
25-Oct-20 07:23 32.118379 -110.936038 258 2651ft 0kts
25-Oct-20 07:24 32.118379 -110.936038 258 2651ft 0kts
25-Oct-20 07:25 32.118379 -110.936038 258 2651ft 0kts
25-Oct-20 07:26 32.118379 -110.936038 258 2651ft 0kts
25-Oct-20 07:27 32.118379 -110.936038 258 2651ft 0kts
25-Oct-20 07:28 32.118379 -110.936038 258 2651ft 0kts
25-Oct-20 07:29 32.118379 -110.936038 258 2651ft 0kts
25-Oct-20 07:30 32.118379 -110.936038 258 2651ft 0kts
25-Oct-20 07:31 32.118379 -110.936038 258 2651ft 0kts
25-Oct-20 07:32 32.118379 -110.936038 258 2651ft 0kts
25-Oct-20 07:33 32.118441 -110.935665 258 2651ft 2kts
25-Oct-20 07:34 32.118513 -110.935232 258 2651ft 0kts
25-Oct-20 07:35 32.118513 -110.935232 258 2651ft 0kts
25-Oct-20 07:36 32.117988 -110.934899 140 2651ft 11kts
25-Oct-20 07:37 32.116152 -110.936391 300 2651ft 0kts
25-Oct-20 07:38 32.116231 -110.937196 227 2651ft 8kts
25-Oct-20 07:39 32.118313 -110.940379 314 2651ft 17kts
25-Oct-20 07:40 32.122232 -110.944998 315 2651ft 21kts
25-Oct-20 07:41 32.124047 -110.947607 229 2651ft 0kts
25-Oct-20 07:42 32.124046 -110.947609 229 2651ft 0kts
25-Oct-20 07:43 32.124045 -110.947610 229 2651ft 0kts
25-Oct-20 07:44 32.122763 -110.947208 135 2651ft 20kts
25-Oct-20 07:45 32.098512 -110.918640 134 3334ft 179kts
25-Oct-20 07:46 32.057091 -110.871839 153 4984ft 252kts
25-Oct-20 07:47 31.997806 -110.902654 240 7685ft 267kts
25-Oct-20 07:48 31.964537 -110.978182 277 10658ft 277kts
25-Oct-20 07:49 32.014296 -111.062671 297 12032ft 349kts
25-Oct-20 07:50 32.063880 -111.165332 297 14384ft 369kts
25-Oct-20 07:51 32.157752 -111.224669 339 16844ft 412kts
25-Oct-20 07:52 32.270823 -111.259823 337 19029ft 426kts
25-Oct-20 07:53 32.386931 -111.297783 337 20985ft 439kts
25-Oct-20 07:54 32.506581 -111.337038 336 22708ft 452kts
25-Oct-20 07:55 32.629338 -111.377564 336 24225ft 463kts
25-Oct-20 07:56 32.754762 -111.419034 335 25655ft 471kts
25-Oct-20 07:57 32.882035 -111.461402 335 26983ft 479kts
25-Oct-20 07:58 32.999567 -111.524720 313 28532ft 447kts
25-Oct-20 07:59 33.093006 -111.619501 308 30325ft 435kts
25-Oct-20 08:00 33.180112 -111.709351 309 31789ft 433kts
25-Oct-20 08:01 33.271827 -111.803207 308 31891ft 428kts
25-Oct-20 08:02 33.361770 -111.896301 308 31885ft 429kts
25-Oct-20 08:03 33.460570 -111.979798 326 31871ft 453kts
25-Oct-20 08:04 33.581240 -112.029312 331 31890ft 460kts
25-Oct-20 08:05 33.702732 -112.077455 331 31900ft 460kts
25-Oct-20 08:06 33.824348 -112.125794 331 31904ft 460kts
25-Oct-20 08:07 33.946015 -112.174384 331 31915ft 460kts
25-Oct-20 08:08 34.067250 -112.223010 331 31930ft 459kts
25-Oct-20 08:09 34.188443 -112.271775 331 31942ft 459kts
25-Oct-20 08:10 34.309979 -112.320834 331 31962ft 459kts
25-Oct-20 08:11 34.431237 -112.369827 331 31981ft 458kts
25-Oct-20 08:12 34.551932 -112.418867 332 31997ft 458kts
25-Oct-20 08:13 34.671715 -112.470167 321 31996ft 445kts
25-Oct-20 08:14 34.741592 -112.580700 289 31998ft 410kts
25-Oct-20 08:15 34.790460 -112.705981 288 31994ft 411kts
25-Oct-20 08:16 34.839184 -112.831916 289 31984ft 412kts
25-Oct-20 08:17 34.888577 -112.958223 289 31972ft 412kts
25-Oct-20 08:18 34.937603 -113.084868 289 31957ft 414kts
25-Oct-20 08:19 34.986576 -113.212186 289 31939ft 414kts
25-Oct-20 08:20 35.035482 -113.339878 289 31666ft 416kts
25-Oct-20 08:21 35.082886 -113.464180 290 29766ft 397kts
25-Oct-20 08:22 35.128913 -113.585133 291 27799ft 386kts
25-Oct-20 08:23 35.173683 -113.702713 291 25859ft 376kts
25-Oct-20 08:24 35.216692 -113.817193 291 23948ft 366kts
25-Oct-20 08:25 35.261926 -113.926923 305 22036ft 362kts
25-Oct-20 08:26 35.338938 -114.006930 318 20108ft 361kts
25-Oct-20 08:27 35.418082 -114.080548 318 18243ft 353kts
25-Oct-20 08:28 35.495484 -114.152525 317 16551ft 343kts
25-Oct-20 08:29 35.570835 -114.222594 317 14834ft 336kts
25-Oct-20 08:30 35.644533 -114.291637 316 13154ft 330kts
25-Oct-20 08:31 35.716046 -114.358738 316 12085ft 307kts
25-Oct-20 08:32 35.790591 -114.406245 333 11653ft 308kts
25-Oct-20 08:33 35.870483 -114.443374 332 11096ft 305kts
25-Oct-20 08:34 35.949807 -114.480466 333 10553ft 304kts
25-Oct-20 08:35 36.024204 -114.518771 311 10015ft 265kts
25-Oct-20 08:36 36.050346 -114.592206 276 9363ft 227kts
25-Oct-20 08:37 36.062739 -114.669202 276 8237ft 227kts
25-Oct-20 08:38 36.073149 -114.746045 269 7990ft 227kts
25-Oct-20 08:39 36.073879 -114.821719 266 6910ft 211kts
25-Oct-20 08:40 36.073865 -114.893167 266 5809ft 207kts
25-Oct-20 08:41 36.073809 -114.963594 267 4723ft 201kts
25-Oct-20 08:42 36.073755 -115.027833 267 3724ft 176kts
25-Oct-20 08:43 36.073706 -115.086681 266 2822ft 164kts
25-Oct-20 08:44 36.073646 -115.140576 269 2189ft 127kts
25-Oct-20 08:45 36.075909 -115.151678 335 2189ft 17kts
25-Oct-20 08:46 36.078270 -115.153030 348 2189ft 11kts
25-Oct-20 08:47 36.078608 -115.148487 95 2189ft 14kts
25-Oct-20 08:48 36.079562 -115.146704 26 2189ft 1kts
25-Oct-20 08:49 36.079568 -115.146700 26 2189ft 0kts
25-Oct-20 08:50 36.079568 -115.146700 26 2189ft 0kts
25-Oct-20 08:51 36.079568 -115.146700 26 2189ft 0kts

Navigation Log

Ident Type
Flight plan parsing failed, navigation log unavailable